sensor_id;sensor_type;location;lat;lon;timestamp;pressure;altitude;pressure_sealevel;temperature;humidity
15884;BME280;8040;50.254;10.960;2024-03-08T00:02:05;98435.69;;;4.11;59.54
15884;BME280;8040;50.254;10.960;2024-03-08T00:04:32;98473.94;;;4.28;59.67
15884;BME280;8040;50.254;10.960;2024-03-08T00:06:57;98417.75;;;3.90;59.77
15884;BME280;8040;50.254;10.960;2024-03-08T00:09:24;98476.63;;;4.28;60.11
15884;BME280;8040;50.254;10.960;2024-03-08T00:11:49;98459.38;;;4.19;60.04
15884;BME280;8040;50.254;10.960;2024-03-08T00:14:15;98472.16;;;4.34;59.80
15884;BME280;8040;50.254;10.960;2024-03-08T00:16:41;98441.72;;;4.02;59.92
15884;BME280;8040;50.254;10.960;2024-03-08T00:19:09;98417.75;;;3.90;60.02
15884;BME280;8040;50.254;10.960;2024-03-08T00:21:34;98433.06;;;3.95;60.26
15884;BME280;8040;50.254;10.960;2024-03-08T00:24:00;98456.81;;;4.03;60.63
15884;BME280;8040;50.254;10.960;2024-03-08T00:26:26;98478.22;;;4.24;60.37
15884;BME280;8040;50.254;10.960;2024-03-08T00:28:51;98422.81;;;3.87;60.47
15884;BME280;8040;50.254;10.960;2024-03-08T00:31:17;98412.84;;;3.82;60.09
15884;BME280;8040;50.254;10.960;2024-03-08T00:33:42;98406.34;;;3.78;60.07
15884;BME280;8040;50.254;10.960;2024-03-08T00:36:08;98446.91;;;4.08;60.78
15884;BME280;8040;50.254;10.960;2024-03-08T00:38:33;98472.84;;;4.24;60.71
15884;BME280;8040;50.254;10.960;2024-03-08T00:40:59;98450.13;;;4.05;60.35
15884;BME280;8040;50.254;10.960;2024-03-08T00:43:25;98435.75;;;3.95;60.68
15884;BME280;8040;50.254;10.960;2024-03-08T00:45:51;98421.50;;;3.89;60.44
15884;BME280;8040;50.254;10.960;2024-03-08T00:48:17;98391.81;;;3.74;60.74
15884;BME280;8040;50.254;10.960;2024-03-08T00:50:42;98449.34;;;4.10;60.46
15884;BME280;8040;50.254;10.960;2024-03-08T00:53:11;98399.91;;;3.79;60.65
15884;BME280;8040;50.254;10.960;2024-03-08T00:55:36;98414.75;;;3.87;61.05
15884;BME280;8040;50.254;10.960;2024-03-08T00:58:03;98465.75;;;4.13;60.69
15884;BME280;8040;50.254;10.960;2024-03-08T01:00:29;98458.16;;;4.05;61.21
15884;BME280;8040;50.254;10.960;2024-03-08T01:02:54;98384.22;;;3.66;60.64
15884;BME280;8040;50.254;10.960;2024-03-08T01:05:21;98434.16;;;3.94;60.92
15884;BME280;8040;50.254;10.960;2024-03-08T01:07:46;98400.00;;;3.63;60.54
15884;BME280;8040;50.254;10.960;2024-03-08T01:10:12;98445.69;;;3.94;60.22
15884;BME280;8040;50.254;10.960;2024-03-08T01:12:38;98381.06;;;3.48;60.62
15884;BME280;8040;50.254;10.960;2024-03-08T01:15:08;98372.72;;;3.44;60.98
15884;BME280;8040;50.254;10.960;2024-03-08T01:17:34;98394.47;;;3.69;61.24
15884;BME280;8040;50.254;10.960;2024-03-08T01:19:59;98427.78;;;4.00;60.28
15884;BME280;8040;50.254;10.960;2024-03-08T01:22:25;98394.94;;;3.66;60.47
15884;BME280;8040;50.254;10.960;2024-03-08T01:24:50;98396.44;;;3.79;61.08
15884;BME280;8040;50.254;10.960;2024-03-08T01:27:16;98380.53;;;3.72;61.23
15884;BME280;8040;50.254;10.960;2024-03-08T01:29:41;98362.47;;;3.63;60.29
15884;BME280;8040;50.254;10.960;2024-03-08T01:32:07;98370.13;;;3.54;60.59
15884;BME280;8040;50.254;10.960;2024-03-08T01:34:33;98355.50;;;3.40;60.38
15884;BME280;8040;50.254;10.960;2024-03-08T01:37:01;98420.88;;;3.82;61.02
15884;BME280;8040;50.254;10.960;2024-03-08T01:39:27;98403.88;;;3.72;60.41
15884;BME280;8040;50.254;10.960;2024-03-08T01:41:52;98360.41;;;3.48;60.99
15884;BME280;8040;50.254;10.960;2024-03-08T01:44:19;98400.22;;;3.83;60.88
15884;BME280;8040;50.254;10.960;2024-03-08T01:46:48;98353.28;;;3.59;60.99
15884;BME280;8040;50.254;10.960;2024-03-08T01:49:14;98378.16;;;3.76;60.72
15884;BME280;8040;50.254;10.960;2024-03-08T01:51:44;98327.63;;;3.41;60.64
15884;BME280;8040;50.254;10.960;2024-03-08T01:54:10;98348.69;;;3.54;60.87
15884;BME280;8040;50.254;10.960;2024-03-08T01:56:38;98335.31;;;3.33;60.98
15884;BME280;8040;50.254;10.960;2024-03-08T01:59:04;98330.84;;;3.17;61.22
15884;BME280;8040;50.254;10.960;2024-03-08T02:01:31;98362.63;;;3.30;61.71
15884;BME280;8040;50.254;10.960;2024-03-08T02:03:57;98384.97;;;3.62;61.50
15884;BME280;8040;50.254;10.960;2024-03-08T02:06:22;98341.59;;;3.43;61.68
15884;BME280;8040;50.254;10.960;2024-03-08T02:08:48;98382.09;;;3.68;61.23
15884;BME280;8040;50.254;10.960;2024-03-08T02:11:14;98358.88;;;3.52;61.45
15884;BME280;8040;50.254;10.960;2024-03-08T02:13:39;98323.41;;;3.45;61.41
15884;BME280;8040;50.254;10.960;2024-03-08T02:16:05;98341.19;;;3.56;61.14
15884;BME280;8040;50.254;10.960;2024-03-08T02:18:33;98377.06;;;3.72;61.10
15884;BME280;8040;50.254;10.960;2024-03-08T02:21:04;98370.94;;;3.76;61.30
15884;BME280;8040;50.254;10.960;2024-03-08T02:23:30;98326.22;;;3.60;61.57
15884;BME280;8040;50.254;10.960;2024-03-08T02:25:56;98334.28;;;3.60;61.92
15884;BME280;8040;50.254;10.960;2024-03-08T02:28:23;98310.84;;;3.51;61.69
15884;BME280;8040;50.254;10.960;2024-03-08T02:30:49;98274.66;;;3.27;61.92
15884;BME280;8040;50.254;10.960;2024-03-08T02:33:21;98341.91;;;3.73;61.93
15884;BME280;8040;50.254;10.960;2024-03-08T02:35:48;98359.66;;;3.79;61.90
15884;BME280;8040;50.254;10.960;2024-03-08T02:38:15;98338.88;;;3.65;62.03
15884;BME280;8040;50.254;10.960;2024-03-08T02:40:49;98267.44;;;3.27;61.79
15884;BME280;8040;50.254;10.960;2024-03-08T02:43:16;98326.16;;;3.55;62.17
15884;BME280;8040;50.254;10.960;2024-03-08T02:45:42;98293.09;;;3.45;62.18
15884;BME280;8040;50.254;10.960;2024-03-08T02:48:08;98278.78;;;3.34;61.81
15884;BME280;8040;50.254;10.960;2024-03-08T02:50:34;98325.88;;;3.52;62.04
15884;BME280;8040;50.254;10.960;2024-03-08T02:53:00;98316.38;;;3.39;62.40
15884;BME280;8040;50.254;10.960;2024-03-08T02:55:26;98327.28;;;3.59;62.29
15884;BME280;8040;50.254;10.960;2024-03-08T02:57:52;98334.75;;;3.31;62.38
15884;BME280;8040;50.254;10.960;2024-03-08T03:00:18;98267.59;;;2.94;62.64
15884;BME280;8040;50.254;10.960;2024-03-08T03:02:45;98282.28;;;3.13;62.73
15884;BME280;8040;50.254;10.960;2024-03-08T03:05:10;98270.84;;;2.96;62.70
15884;BME280;8040;50.254;10.960;2024-03-08T03:07:37;98325.09;;;3.30;63.02
15884;BME280;8040;50.254;10.960;2024-03-08T03:10:02;98317.31;;;3.28;62.65
15884;BME280;8040;50.254;10.960;2024-03-08T03:12:29;98316.31;;;3.34;62.94
15884;BME280;8040;50.254;10.960;2024-03-08T03:14:55;98294.75;;;3.24;62.62
15884;BME280;8040;50.254;10.960;2024-03-08T03:17:25;98249.81;;;3.10;62.82
15884;BME280;8040;50.254;10.960;2024-03-08T03:19:51;98259.34;;;3.22;62.33
15884;BME280;8040;50.254;10.960;2024-03-08T03:22:19;98291.34;;;3.34;62.40
15884;BME280;8040;50.254;10.960;2024-03-08T03:24:45;98278.41;;;3.26;62.32
15884;BME280;8040;50.254;10.960;2024-03-08T03:27:14;98263.28;;;3.15;62.11
15884;BME280;8040;50.254;10.960;2024-03-08T03:29:41;98242.31;;;2.85;62.35
15884;BME280;8040;50.254;10.960;2024-03-08T03:32:17;98281.84;;;3.21;62.63
15884;BME280;8040;50.254;10.960;2024-03-08T03:34:45;98283.53;;;3.27;62.29
15884;BME280;8040;50.254;10.960;2024-03-08T03:37:11;98301.34;;;3.38;62.09
15884;BME280;8040;50.254;10.960;2024-03-08T03:39:38;98288.97;;;3.37;62.56
15884;BME280;8040;50.254;10.960;2024-03-08T03:42:19;98231.16;;;2.93;62.44
15884;BME280;8040;50.254;10.960;2024-03-08T03:44:48;98286.88;;;3.39;62.59
15884;BME280;8040;50.254;10.960;2024-03-08T03:47:14;98281.16;;;3.31;62.77
15884;BME280;8040;50.254;10.960;2024-03-08T03:49:43;98229.69;;;3.07;62.07
15884;BME280;8040;50.254;10.960;2024-03-08T03:52:09;98266.47;;;3.12;62.29
15884;BME280;8040;50.254;10.960;2024-03-08T03:54:35;98255.19;;;2.88;62.72
15884;BME280;8040;50.254;10.960;2024-03-08T03:57:01;98258.63;;;2.84;63.18
15884;BME280;8040;50.254;10.960;2024-03-08T03:59:30;98224.06;;;2.61;63.35
15884;BME280;8040;50.254;10.960;2024-03-08T04:01:55;98265.06;;;2.83;63.57
15884;BME280;8040;50.254;10.960;2024-03-08T04:04:21;98243.69;;;2.66;63.74
15884;BME280;8040;50.254;10.960;2024-03-08T04:06:46;98273.91;;;2.83;63.57
15884;BME280;8040;50.254;10.960;2024-03-08T04:09:13;98249.59;;;2.68;63.71
15884;BME280;8040;50.254;10.960;2024-03-08T04:11:39;98225.69;;;2.62;63.88
15884;BME280;8040;50.254;10.960;2024-03-08T04:14:04;98279.38;;;2.93;63.69
15884;BME280;8040;50.254;10.960;2024-03-08T04:16:31;98256.81;;;2.68;63.88
15884;BME280;8040;50.254;10.960;2024-03-08T04:18:57;98277.91;;;2.81;64.03
15884;BME280;8040;50.254;10.960;2024-03-08T04:21:22;98253.66;;;2.49;64.27
15884;BME280;8040;50.254;10.960;2024-03-08T04:23:48;98262.00;;;2.53;64.21
15884;BME280;8040;50.254;10.960;2024-03-08T04:26:13;98279.38;;;2.72;64.59
15884;BME280;8040;50.254;10.960;2024-03-08T04:28:39;98280.69;;;2.69;64.52
15884;BME280;8040;50.254;10.960;2024-03-08T04:31:06;98252.03;;;2.48;64.78
15884;BME280;8040;50.254;10.960;2024-03-08T04:33:32;98215.84;;;2.24;64.69
15884;BME280;8040;50.254;10.960;2024-03-08T04:35:58;98267.72;;;2.61;64.80
15884;BME280;8040;50.254;10.960;2024-03-08T04:38:23;98243.56;;;2.56;64.49
15884;BME280;8040;50.254;10.960;2024-03-08T04:40:50;98250.38;;;2.64;64.50
15884;BME280;8040;50.254;10.960;2024-03-08T04:43:15;98255.50;;;2.70;64.40
15884;BME280;8040;50.254;10.960;2024-03-08T04:45:44;98235.78;;;2.55;63.99
15884;BME280;8040;50.254;10.960;2024-03-08T04:48:09;98232.47;;;2.48;64.29
15884;BME280;8040;50.254;10.960;2024-03-08T04:50:35;98215.09;;;2.29;64.31
15884;BME280;8040;50.254;10.960;2024-03-08T04:53:01;98224.19;;;2.49;64.13
15884;BME280;8040;50.254;10.960;2024-03-08T04:55:28;98213.28;;;2.34;64.53
15884;BME280;8040;50.254;10.960;2024-03-08T04:57:54;98189.31;;;2.23;64.29
15884;BME280;8040;50.254;10.960;2024-03-08T05:00:19;98235.59;;;2.61;64.28
15884;BME280;8040;50.254;10.960;2024-03-08T05:02:45;98256.66;;;2.74;63.96
15884;BME280;8040;50.254;10.960;2024-03-08T05:05:11;98246.44;;;2.71;64.17
15884;BME280;8040;50.254;10.960;2024-03-08T05:07:38;98201.72;;;2.50;64.10
15884;BME280;8040;50.254;10.960;2024-03-08T05:10:05;98219.66;;;2.71;63.70
15884;BME280;8040;50.254;10.960;2024-03-08T05:12:32;98231.38;;;2.65;63.96
15884;BME280;8040;50.254;10.960;2024-03-08T05:14:59;98278.91;;;3.01;63.86
15884;BME280;8040;50.254;10.960;2024-03-08T05:17:25;98255.78;;;2.90;63.78
15884;BME280;8040;50.254;10.960;2024-03-08T05:19:51;98269.28;;;3.00;63.72
15884;BME280;8040;50.254;10.960;2024-03-08T05:22:16;98251.53;;;2.73;63.92
15884;BME280;8040;50.254;10.960;2024-03-08T05:24:43;98242.72;;;2.72;64.06
15884;BME280;8040;50.254;10.960;2024-03-08T05:27:08;98225.44;;;2.63;63.93
15884;BME280;8040;50.254;10.960;2024-03-08T05:29:34;98266.19;;;2.87;64.26
15884;BME280;8040;50.254;10.960;2024-03-08T05:31:59;98274.22;;;2.87;64.28
15884;BME280;8040;50.254;10.960;2024-03-08T05:34:25;98209.13;;;2.43;64.31
15884;BME280;8040;50.254;10.960;2024-03-08T05:36:51;98272.47;;;2.97;64.35
15884;BME280;8040;50.254;10.960;2024-03-08T05:39:18;98247.75;;;2.69;64.30
15884;BME280;8040;50.254;10.960;2024-03-08T05:41:45;98207.59;;;2.47;64.33
15884;BME280;8040;50.254;10.960;2024-03-08T05:44:11;98206.59;;;2.53;64.25
15884;BME280;8040;50.254;10.960;2024-03-08T05:46:37;98232.38;;;2.59;64.73
15884;BME280;8040;50.254;10.960;2024-03-08T05:49:06;98250.53;;;2.57;64.92
15884;BME280;8040;50.254;10.960;2024-03-08T05:51:32;98249.16;;;2.55;65.04
15884;BME280;8040;50.254;10.960;2024-03-08T05:54:05;98236.28;;;2.52;65.10
15884;BME280;8040;50.254;10.960;2024-03-08T05:56:34;98259.25;;;2.69;65.27
15884;BME280;8040;50.254;10.960;2024-03-08T05:59:01;98266.19;;;2.65;65.42
15884;BME280;8040;50.254;10.960;2024-03-08T06:01:26;98231.91;;;2.46;65.44
15884;BME280;8040;50.254;10.960;2024-03-08T06:03:55;98256.16;;;2.77;65.21
15884;BME280;8040;50.254;10.960;2024-03-08T06:06:25;98256.19;;;2.82;65.11
15884;BME280;8040;50.254;10.960;2024-03-08T06:08:51;98255.88;;;3.00;64.66
15884;BME280;8040;50.254;10.960;2024-03-08T06:11:18;98254.66;;;2.86;64.86
15884;BME280;8040;50.254;10.960;2024-03-08T06:13:47;98236.47;;;2.67;65.13
15884;BME280;8040;50.254;10.960;2024-03-08T06:16:13;98262.44;;;2.88;65.34
15884;BME280;8040;50.254;10.960;2024-03-08T06:18:38;98246.06;;;2.63;65.48
15884;BME280;8040;50.254;10.960;2024-03-08T06:21:10;98271.16;;;2.78;65.69
15884;BME280;8040;50.254;10.960;2024-03-08T06:23:37;98227.69;;;2.50;66.05
15884;BME280;8040;50.254;10.960;2024-03-08T06:26:06;98185.78;;;2.17;66.34
15884;BME280;8040;50.254;10.960;2024-03-08T06:28:31;98221.06;;;2.36;66.37
15884;BME280;8040;50.254;10.960;2024-03-08T06:30:58;98210.38;;;2.36;66.28
15884;BME280;8040;50.254;10.960;2024-03-08T06:33:24;98226.13;;;2.54;66.52
15884;BME280;8040;50.254;10.960;2024-03-08T06:35:52;98222.66;;;2.53;66.38
15884;BME280;8040;50.254;10.960;2024-03-08T06:38:18;98232.38;;;2.59;66.57
15884;BME280;8040;50.254;10.960;2024-03-08T06:40:44;98247.25;;;2.72;66.43
15884;BME280;8040;50.254;10.960;2024-03-08T06:43:14;98258.19;;;2.92;66.24
15884;BME280;8040;50.254;10.960;2024-03-08T06:45:45;98240.69;;;3.06;66.05
15884;BME280;8040;50.254;10.960;2024-03-08T06:48:16;98207.16;;;3.03;65.40
15884;BME280;8040;50.254;10.960;2024-03-08T06:50:46;98241.66;;;3.21;65.23
15884;BME280;8040;50.254;10.960;2024-03-08T06:53:15;98214.75;;;3.11;64.59
15884;BME280;8040;50.254;10.960;2024-03-08T06:55:56;98219.56;;;3.09;64.46
15884;BME280;8040;50.254;10.960;2024-03-08T06:58:35;98227.28;;;3.06;65.01
15884;BME280;8040;50.254;10.960;2024-03-08T07:04:17;98259.59;;;3.47;64.84
15884;BME280;8040;50.254;10.960;2024-03-08T07:06:59;98254.97;;;3.69;64.37
15884;BME280;8040;50.254;10.960;2024-03-08T07:09:41;98236.94;;;3.60;64.19
15884;BME280;8040;50.254;10.960;2024-03-08T07:12:15;98244.84;;;3.76;63.34
15884;BME280;8040;50.254;10.960;2024-03-08T07:14:43;98252.41;;;3.84;63.30
15884;BME280;8040;50.254;10.960;2024-03-08T07:17:29;98246.50;;;3.82;63.36
15884;BME280;8040;50.254;10.960;2024-03-08T07:19:55;98243.25;;;3.80;63.12
15884;BME280;8040;50.254;10.960;2024-03-08T07:22:34;98248.22;;;3.98;63.06
15884;BME280;8040;50.254;10.960;2024-03-08T07:25:15;98246.69;;;4.07;62.59
15884;BME280;8040;50.254;10.960;2024-03-08T07:28:03;98244.78;;;4.03;62.25
15884;BME280;8040;50.254;10.960;2024-03-08T07:30:35;98218.03;;;3.76;62.65
15884;BME280;8040;50.254;10.960;2024-03-08T07:33:12;98240.50;;;4.07;62.75
15884;BME280;8040;50.254;10.960;2024-03-08T07:35:38;98207.88;;;3.83;62.23
15884;BME280;8040;50.254;10.960;2024-03-08T07:38:04;98191.25;;;3.86;62.10
15884;BME280;8040;50.254;10.960;2024-03-08T07:40:31;98206.16;;;4.04;61.73
15884;BME280;8040;50.254;10.960;2024-03-08T07:42:57;98220.53;;;4.34;61.39
15884;BME280;8040;50.254;10.960;2024-03-08T07:45:23;98202.53;;;4.30;60.80
15884;BME280;8040;50.254;10.960;2024-03-08T07:47:49;98190.94;;;4.19;61.12
15884;BME280;8040;50.254;10.960;2024-03-08T07:50:16;98188.31;;;4.34;61.02
15884;BME280;8040;50.254;10.960;2024-03-08T07:52:44;98198.03;;;4.40;60.39
15884;BME280;8040;50.254;10.960;2024-03-08T07:55:10;98172.53;;;4.43;59.79
15884;BME280;8040;50.254;10.960;2024-03-08T07:57:35;98172.28;;;4.44;59.48
15884;BME280;8040;50.254;10.960;2024-03-08T08:00:07;98185.78;;;4.64;59.29
15884;BME280;8040;50.254;10.960;2024-03-08T08:02:35;98162.31;;;4.40;58.62
15884;BME280;8040;50.254;10.960;2024-03-08T08:05:01;98201.09;;;4.59;59.08
15884;BME280;8040;50.254;10.960;2024-03-08T08:07:27;98164.28;;;4.54;59.10
15884;BME280;8040;50.254;10.960;2024-03-08T08:09:53;98165.38;;;4.63;58.56
15884;BME280;8040;50.254;10.960;2024-03-08T08:12:18;98151.97;;;4.68;58.52
15884;BME280;8040;50.254;10.960;2024-03-08T08:14:47;98163.50;;;4.64;58.71
15884;BME280;8040;50.254;10.960;2024-03-08T08:17:12;98152.94;;;4.42;59.28
15884;BME280;8040;50.254;10.960;2024-03-08T08:19:41;98124.41;;;4.26;59.57
15884;BME280;8040;50.254;10.960;2024-03-08T08:22:06;98124.91;;;4.18;59.75
15884;BME280;8040;50.254;10.960;2024-03-08T08:24:34;98105.66;;;4.36;59.37
15884;BME280;8040;50.254;10.960;2024-03-08T08:26:59;98131.47;;;4.47;59.28
15884;BME280;8040;50.254;10.960;2024-03-08T08:29:26;98116.72;;;4.55;59.16
15884;BME280;8040;50.254;10.960;2024-03-08T08:31:51;98091.19;;;4.52;59.08
15884;BME280;8040;50.254;10.960;2024-03-08T08:34:16;98126.19;;;4.72;58.64
15884;BME280;8040;50.254;10.960;2024-03-08T08:36:45;98125.09;;;4.68;58.40
15884;BME280;8040;50.254;10.960;2024-03-08T08:39:11;98128.78;;;4.52;58.51
15884;BME280;8040;50.254;10.960;2024-03-08T08:41:39;98149.53;;;4.67;59.52
15884;BME280;8040;50.254;10.960;2024-03-08T08:44:07;98105.19;;;4.54;59.35
15884;BME280;8040;50.254;10.960;2024-03-08T08:46:36;98126.75;;;4.79;58.80
15884;BME280;8040;50.254;10.960;2024-03-08T08:49:06;98125.69;;;4.95;58.53
15884;BME280;8040;50.254;10.960;2024-03-08T08:51:34;98123.50;;;4.77;58.44
15884;BME280;8040;50.254;10.960;2024-03-08T08:53:59;98119.78;;;4.93;58.67
15884;BME280;8040;50.254;10.960;2024-03-08T08:56:25;98098.03;;;5.00;58.10
15884;BME280;8040;50.254;10.960;2024-03-08T09:02:14;98106.91;;;5.40;57.55
15884;BME280;8040;50.254;10.960;2024-03-08T09:04:43;98118.72;;;5.54;57.47
15884;BME280;8040;50.254;10.960;2024-03-08T09:07:09;98129.75;;;5.63;57.08
15884;BME280;8040;50.254;10.960;2024-03-08T09:09:34;98062.25;;;5.49;57.16
15884;BME280;8040;50.254;10.960;2024-03-08T09:12:01;98085.88;;;5.57;56.17
15884;BME280;8040;50.254;10.960;2024-03-08T09:14:26;98113.88;;;5.91;56.28
15884;BME280;8040;50.254;10.960;2024-03-08T09:16:52;98106.81;;;6.10;56.23
15884;BME280;8040;50.254;10.960;2024-03-08T09:19:17;98083.66;;;6.09;55.73
15884;BME280;8040;50.254;10.960;2024-03-08T09:21:44;98091.47;;;6.16;55.54
15884;BME280;8040;50.254;10.960;2024-03-08T09:24:10;98080.97;;;6.14;54.56
15884;BME280;8040;50.254;10.960;2024-03-08T09:26:35;98063.53;;;5.92;54.55
15884;BME280;8040;50.254;10.960;2024-03-08T09:29:01;98076.72;;;5.78;55.26
15884;BME280;8040;50.254;10.960;2024-03-08T09:31:26;98075.66;;;5.84;55.30
15884;BME280;8040;50.254;10.960;2024-03-08T09:33:52;98060.03;;;5.91;55.48
15884;BME280;8040;50.254;10.960;2024-03-08T09:36:17;98072.03;;;6.24;55.64
15884;BME280;8040;50.254;10.960;2024-03-08T09:38:43;98060.94;;;6.30;55.55
15884;BME280;8040;50.254;10.960;2024-03-08T09:41:09;98104.00;;;6.40;54.02
15884;BME280;8040;50.254;10.960;2024-03-08T09:47:20;98085.25;;;6.74;53.47
15884;BME280;8040;50.254;10.960;2024-03-08T09:49:48;98072.81;;;6.83;53.19
15884;BME280;8040;50.254;10.960;2024-03-08T09:52:14;98074.88;;;6.96;52.67
15884;BME280;8040;50.254;10.960;2024-03-08T09:54:40;98066.06;;;6.80;52.50
15884;BME280;8040;50.254;10.960;2024-03-08T09:57:10;98045.72;;;6.54;52.78
15884;BME280;8040;50.254;10.960;2024-03-08T09:59:35;98038.22;;;6.51;53.12
15884;BME280;8040;50.254;10.960;2024-03-08T10:02:01;98062.25;;;6.86;53.69
15884;BME280;8040;50.254;10.960;2024-03-08T10:04:28;98077.22;;;7.02;52.79
15884;BME280;8040;50.254;10.960;2024-03-08T10:06:57;98025.66;;;6.75;52.61
15884;BME280;8040;50.254;10.960;2024-03-08T10:09:25;98077.09;;;7.22;52.49
15884;BME280;8040;50.254;10.960;2024-03-08T10:11:56;98066.56;;;7.26;52.17
15884;BME280;8040;50.254;10.960;2024-03-08T10:14:24;98041.19;;;6.93;52.29
15884;BME280;8040;50.254;10.960;2024-03-08T10:16:49;98072.91;;;7.06;52.36
15884;BME280;8040;50.254;10.960;2024-03-08T10:19:14;98011.66;;;6.73;52.49
15884;BME280;8040;50.254;10.960;2024-03-08T10:21:49;98042.78;;;6.94;52.78
15884;BME280;8040;50.254;10.960;2024-03-08T10:24:14;98033.50;;;7.10;52.54
15884;BME280;8040;50.254;10.960;2024-03-08T10:26:40;98046.66;;;7.17;52.47
15884;BME280;8040;50.254;10.960;2024-03-08T10:29:05;98051.06;;;7.36;52.64
15884;BME280;8040;50.254;10.960;2024-03-08T10:31:34;98023.75;;;7.14;52.32
15884;BME280;8040;50.254;10.960;2024-03-08T10:33:59;98027.81;;;7.12;52.11
15884;BME280;8040;50.254;10.960;2024-03-08T10:36:27;98022.78;;;7.00;52.37
15884;BME280;8040;50.254;10.960;2024-03-08T10:38:53;98033.44;;;7.15;52.23
15884;BME280;8040;50.254;10.960;2024-03-08T10:41:24;98013.00;;;7.09;52.60
15884;BME280;8040;50.254;10.960;2024-03-08T10:44:15;97990.50;;;6.90;51.88
15884;BME280;8040;50.254;10.960;2024-03-08T10:46:58;98033.44;;;7.15;51.95
15884;BME280;8040;50.254;10.960;2024-03-08T10:49:31;98033.63;;;7.23;52.57
15884;BME280;8040;50.254;10.960;2024-03-08T10:52:10;98006.06;;;7.32;52.18
15884;BME280;8040;50.254;10.960;2024-03-08T10:54:37;98027.03;;;7.39;51.66
15884;BME280;8040;50.254;10.960;2024-03-08T10:57:06;98014.03;;;7.41;51.94
15884;BME280;8040;50.254;10.960;2024-03-08T10:59:34;97976.28;;;7.13;51.28
15884;BME280;8040;50.254;10.960;2024-03-08T11:02:00;97998.25;;;7.30;52.13
15884;BME280;8040;50.254;10.960;2024-03-08T11:04:26;97983.44;;;7.28;51.66
15884;BME280;8040;50.254;10.960;2024-03-08T11:07:00;98011.63;;;7.68;51.73
15884;BME280;8040;50.254;10.960;2024-03-08T11:09:32;98009.50;;;7.89;51.49
15884;BME280;8040;50.254;10.960;2024-03-08T11:12:27;98009.19;;;8.14;50.96
15884;BME280;8040;50.254;10.960;2024-03-08T11:15:01;97998.88;;;8.21;50.93
15884;BME280;8040;50.254;10.960;2024-03-08T11:20:01;97986.97;;;8.22;51.89
15884;BME280;8040;50.254;10.960;2024-03-08T11:22:32;97990.63;;;8.31;50.18
15884;BME280;8040;50.254;10.960;2024-03-08T11:25:00;97936.63;;;8.07;49.97
15884;BME280;8040;50.254;10.960;2024-03-08T11:27:31;97990.97;;;8.43;49.70
15884;BME280;8040;50.254;10.960;2024-03-08T11:30:05;97983.34;;;8.50;49.66
15884;BME280;8040;50.254;10.960;2024-03-08T11:32:46;97929.72;;;8.20;49.67
15884;BME280;8040;50.254;10.960;2024-03-08T11:35:22;97947.69;;;8.29;49.61
15884;BME280;8040;50.254;10.960;2024-03-08T11:37:50;97960.09;;;8.67;49.88
15884;BME280;8040;50.254;10.960;2024-03-08T11:40:16;97933.84;;;8.68;49.29
15884;BME280;8040;50.254;10.960;2024-03-08T11:42:46;97962.53;;;9.01;48.73
15884;BME280;8040;50.254;10.960;2024-03-08T11:45:16;97948.09;;;9.05;48.95
15884;BME280;8040;50.254;10.960;2024-03-08T11:47:43;97958.38;;;8.90;48.97
15884;BME280;8040;50.254;10.960;2024-03-08T11:50:12;97960.88;;;8.68;48.47
15884;BME280;8040;50.254;10.960;2024-03-08T11:52:44;97946.94;;;8.61;49.18
15884;BME280;8040;50.254;10.960;2024-03-08T11:55:11;97937.22;;;8.60;48.97
15884;BME280;8040;50.254;10.960;2024-03-08T11:57:38;97942.56;;;8.65;49.02
15884;BME280;8040;50.254;10.960;2024-03-08T12:00:04;97929.03;;;8.65;48.97
15884;BME280;8040;50.254;10.960;2024-03-08T12:02:33;97918.34;;;8.73;49.10
15884;BME280;8040;50.254;10.960;2024-03-08T12:05:03;97941.03;;;8.91;48.78
15884;BME280;8040;50.254;10.960;2024-03-08T12:07:29;97905.88;;;8.77;48.45
15884;BME280;8040;50.254;10.960;2024-03-08T12:10:17;97909.00;;;8.66;48.22
15884;BME280;8040;50.254;10.960;2024-03-08T12:12:45;97914.50;;;8.61;48.11
15884;BME280;8040;50.254;10.960;2024-03-08T12:15:12;97882.22;;;8.51;48.33
15884;BME280;8040;50.254;10.960;2024-03-08T12:17:38;97869.19;;;8.71;48.68
15884;BME280;8040;50.254;10.960;2024-03-08T12:20:24;97888.28;;;9.07;48.05
15884;BME280;8040;50.254;10.960;2024-03-08T12:22:57;97898.00;;;9.08;47.29
15884;BME280;8040;50.254;10.960;2024-03-08T12:25:35;97857.81;;;9.01;46.33
15884;BME280;8040;50.254;10.960;2024-03-08T12:28:11;97879.50;;;9.28;46.56
15884;BME280;8040;50.254;10.960;2024-03-08T12:30:51;97883.72;;;9.48;46.37
15884;BME280;8040;50.254;10.960;2024-03-08T12:33:22;97857.44;;;9.35;46.35
15884;BME280;8040;50.254;10.960;2024-03-08T12:35:55;97882.63;;;9.49;45.31
15884;BME280;8040;50.254;10.960;2024-03-08T12:38:27;97885.53;;;9.52;46.22
15884;BME280;8040;50.254;10.960;2024-03-08T12:40:58;97837.28;;;9.41;46.21
15884;BME280;8040;50.254;10.960;2024-03-08T12:43:24;97846.22;;;9.55;45.85
15884;BME280;8040;50.254;10.960;2024-03-08T12:45:49;97872.00;;;9.66;44.65
15884;BME280;8040;50.254;10.960;2024-03-08T12:48:15;97848.31;;;9.58;44.70
15884;BME280;8040;50.254;10.960;2024-03-08T12:50:41;97834.66;;;9.63;44.87
15884;BME280;8040;50.254;10.960;2024-03-08T12:53:10;97829.13;;;9.81;44.56
15884;BME280;8040;50.254;10.960;2024-03-08T12:55:36;97834.38;;;10.00;44.85
15884;BME280;8040;50.254;10.960;2024-03-08T12:58:01;97843.63;;;10.12;44.40
15884;BME280;8040;50.254;10.960;2024-03-08T13:00:27;97812.72;;;9.64;43.21
15884;BME280;8040;50.254;10.960;2024-03-08T13:02:53;97824.25;;;9.56;44.37
15884;BME280;8040;50.254;10.960;2024-03-08T13:05:18;97844.38;;;9.77;43.90
15884;BME280;8040;50.254;10.960;2024-03-08T13:07:45;97813.81;;;9.63;44.98
15884;BME280;8040;50.254;10.960;2024-03-08T13:10:15;97802.28;;;9.58;44.52
15884;BME280;8040;50.254;10.960;2024-03-08T13:12:44;97809.09;;;9.69;44.53
15884;BME280;8040;50.254;10.960;2024-03-08T13:15:10;97825.91;;;9.79;44.47
15884;BME280;8040;50.254;10.960;2024-03-08T13:17:48;97826.72;;;9.80;44.50
15884;BME280;8040;50.254;10.960;2024-03-08T13:20:14;97764.19;;;9.54;44.09
15884;BME280;8040;50.254;10.960;2024-03-08T13:22:44;97825.50;;;9.86;44.05
15884;BME280;8040;50.254;10.960;2024-03-08T13:25:10;97815.97;;;9.88;44.40
15884;BME280;8040;50.254;10.960;2024-03-08T13:27:40;97799.59;;;9.93;43.82